createdAt,value
2023-02-02T00:01:32.672Z,100189.56
2023-02-02T00:03:59.862Z,100185.03
2023-02-02T00:06:28.148Z,100191.47
2023-02-02T00:08:57.997Z,100188.84
2023-02-02T00:11:25.306Z,100171.13
2023-02-02T00:13:52.026Z,100169.00
2023-02-02T00:16:22.035Z,100183.56
2023-02-02T00:18:49.326Z,100189.25
2023-02-02T00:21:15.754Z,100192.75
2023-02-02T00:23:42.327Z,100177.47
2023-02-02T00:26:09.320Z,100176.09
2023-02-02T00:28:35.895Z,100175.03
2023-02-02T00:31:02.453Z,100171.78
2023-02-02T00:33:28.999Z,100179.91
2023-02-02T00:35:55.450Z,100168.59
2023-02-02T00:38:22.906Z,100155.09
2023-02-02T00:40:49.553Z,100164.91
2023-02-02T00:43:15.992Z,100167.56
2023-02-02T00:45:42.740Z,100163.19
2023-02-02T00:48:10.845Z,100159.19
2023-02-02T00:50:37.482Z,100151.81
2023-02-02T00:53:04.037Z,100155.72
2023-02-02T00:55:30.727Z,100158.66
2023-02-02T00:57:57.443Z,100165.00
2023-02-02T01:00:25.872Z,100163.53
2023-02-02T01:02:53.866Z,100158.34
2023-02-02T01:05:20.915Z,100177.03
2023-02-02T01:07:47.881Z,100178.63
2023-02-02T01:10:16.209Z,100184.09
2023-02-02T01:12:43.676Z,100179.38
2023-02-02T01:15:11.730Z,100183.25
2023-02-02T01:17:38.715Z,100195.59
2023-02-02T01:20:07.023Z,100175.34
2023-02-02T01:22:34.790Z,100186.53
2023-02-02T01:25:01.845Z,100179.78
2023-02-02T01:27:28.308Z,100187.81
2023-02-02T01:29:54.773Z,100183.47
2023-02-02T01:32:21.844Z,100197.50
2023-02-02T01:34:48.243Z,100192.22
2023-02-02T01:37:14.784Z,100208.78
2023-02-02T01:39:41.279Z,100193.81
2023-02-02T01:42:19.870Z,100191.09
2023-02-02T01:45:20.375Z,100194.44
2023-02-02T01:47:51.875Z,100197.63
2023-02-02T01:50:20.970Z,100173.13
2023-02-02T01:52:50.250Z,100186.94
2023-02-02T01:55:21.637Z,100189.50
2023-02-02T01:57:57.093Z,100191.28
2023-02-02T02:00:27.116Z,100203.09
2023-02-02T02:03:03.790Z,100198.25
2023-02-02T02:09:29.064Z,100214.69
2023-02-02T02:11:55.804Z,100211.00
2023-02-02T02:14:41.946Z,100215.22
2023-02-02T02:17:20.970Z,100219.56
2023-02-02T02:20:36.065Z,100211.97
2023-02-02T02:23:49.146Z,100226.41
2023-02-02T02:26:36.536Z,100226.41
2023-02-02T02:29:25.815Z,100211.03
2023-02-02T02:32:01.186Z,100210.19
2023-02-02T02:34:42.039Z,100217.00
2023-02-02T02:37:23.603Z,100223.13
2023-02-02T02:40:04.360Z,100226.63
2023-02-02T02:42:35.575Z,100242.22
2023-02-02T02:45:03.887Z,100229.56
2023-02-02T02:47:32.222Z,100242.56
2023-02-02T02:49:58.803Z,100253.13
2023-02-02T02:52:25.435Z,100250.91
2023-02-02T02:54:55.144Z,100248.25
2023-02-02T02:57:46.270Z,100257.63
2023-02-02T03:00:33.838Z,100245.91
2023-02-02T03:03:28.381Z,100254.50
2023-02-02T03:06:20.922Z,100249.72
2023-02-02T03:08:59.123Z,100255.75
2023-02-02T03:11:25.712Z,100259.44
2023-02-02T03:13:52.659Z,100271.59
2023-02-02T03:16:19.294Z,100266.50
2023-02-02T03:18:45.833Z,100287.84
2023-02-02T03:21:12.392Z,100291.00
2023-02-02T03:23:39.279Z,100291.84
2023-02-02T03:26:06.838Z,100297.75
2023-02-02T03:28:34.325Z,100301.75
2023-02-02T03:31:02.137Z,100307.16
2023-02-02T03:33:29.896Z,100311.69
2023-02-02T03:35:56.384Z,100317.16
2023-02-02T03:38:22.842Z,100311.81
2023-02-02T03:40:51.007Z,100328.47
2023-02-02T03:43:24.463Z,100327.50
2023-02-02T03:46:04.235Z,100339.66
2023-02-02T03:48:31.269Z,100354.97
2023-02-02T03:50:58.118Z,100337.88
2023-02-02T03:53:24.644Z,100342.63
2023-02-02T03:55:51.126Z,100348.09
2023-02-02T03:58:17.660Z,100358.47
2023-02-02T04:00:44.093Z,100357.91
2023-02-02T04:03:10.625Z,100365.75
2023-02-02T04:05:37.107Z,100361.94
2023-02-02T04:08:03.589Z,100375.44
2023-02-02T04:10:30.068Z,100367.22
2023-02-02T04:12:56.698Z,100372.56
2023-02-02T04:15:23.419Z,100377.22
2023-02-02T04:17:50.055Z,100382.41
2023-02-02T04:20:16.817Z,100387.56
2023-02-02T04:22:43.368Z,100399.94
2023-02-02T04:25:09.855Z,100402.25
2023-02-02T04:27:36.455Z,100403.31
2023-02-02T04:30:03.095Z,100417.25
2023-02-02T04:32:29.565Z,100417.69
2023-02-02T04:34:56.078Z,100414.91
2023-02-02T04:37:22.540Z,100426.94
2023-02-02T04:39:49.081Z,100424.94
2023-02-02T04:42:15.503Z,100436.66
2023-02-02T04:44:43.919Z,100426.94
2023-02-02T04:47:10.477Z,100433.63
2023-02-02T04:49:36.993Z,100457.38
2023-02-02T04:52:03.574Z,100460.94
2023-02-02T04:54:30.203Z,100459.25
2023-02-02T04:56:56.755Z,100464.75
2023-02-02T04:59:23.339Z,100471.50
2023-02-02T05:01:50.996Z,100467.50
2023-02-02T05:04:17.498Z,100468.53
2023-02-02T05:06:43.996Z,100478.88
2023-02-02T05:09:11.144Z,100480.78
2023-02-02T05:11:39.108Z,100485.66
2023-02-02T05:14:05.536Z,100488.94
2023-02-02T05:16:32.060Z,100483.31
2023-02-02T05:18:59.565Z,100496.31
2023-02-02T05:21:26.125Z,100497.38
2023-02-02T05:23:52.643Z,100507.28
2023-02-02T05:26:25.122Z,100513.72
2023-02-02T05:28:52.171Z,100514.69
2023-02-02T05:31:19.609Z,100521.31
2023-02-02T05:33:46.323Z,100519.31
2023-02-02T05:36:12.804Z,100523.63
2023-02-02T05:38:39.539Z,100531.47
2023-02-02T05:41:06.062Z,100537.47
2023-02-02T05:43:33.413Z,100537.41
2023-02-02T05:45:59.923Z,100534.75
2023-02-02T05:48:27.236Z,100537.59
2023-02-02T05:51:01.926Z,100544.94
2023-02-02T05:53:30.176Z,100549.94
2023-02-02T05:55:56.753Z,100548.78
2023-02-02T05:58:23.329Z,100555.88
2023-02-02T06:00:49.897Z,100552.59
2023-02-02T06:03:16.429Z,100565.59
2023-02-02T06:05:42.961Z,100570.66
2023-02-02T06:08:09.467Z,100586.50
2023-02-02T06:10:39.070Z,100582.91
2023-02-02T06:13:05.514Z,100587.53
2023-02-02T06:15:33.011Z,100589.34
2023-02-02T06:18:00.289Z,100601.59
2023-02-02T06:20:27.078Z,100598.09
2023-02-02T06:22:53.611Z,100608.16
2023-02-02T06:25:20.040Z,100611.75
2023-02-02T06:27:46.615Z,100612.13
2023-02-02T06:30:13.811Z,100617.03
2023-02-02T06:32:40.389Z,100619.28
2023-02-02T06:35:08.742Z,100622.53
2023-02-02T06:37:35.297Z,100622.88
2023-02-02T06:40:01.837Z,100624.78
2023-02-02T06:42:28.507Z,100629.31
2023-02-02T06:44:54.997Z,100629.50
2023-02-02T06:47:21.532Z,100638.38
2023-02-02T06:49:48.101Z,100638.38
2023-02-02T06:52:14.605Z,100647.03
2023-02-02T06:54:41.078Z,100649.66
2023-02-02T06:57:09.332Z,100660.03
2023-02-02T06:59:35.747Z,100659.38
2023-02-02T07:02:02.361Z,100670.78
2023-02-02T07:04:28.899Z,100671.00
2023-02-02T07:06:55.457Z,100674.38
2023-02-02T07:09:21.880Z,100673.22
2023-02-02T07:11:48.321Z,100677.59
2023-02-02T07:14:14.819Z,100688.97
2023-02-02T07:16:41.263Z,100691.97
2023-02-02T07:19:07.839Z,100684.34
2023-02-02T07:21:36.981Z,100701.69
2023-02-02T07:24:04.787Z,100709.97
2023-02-02T07:26:31.361Z,100718.75
2023-02-02T07:28:57.971Z,100720.16
2023-02-02T07:31:26.563Z,100726.59
2023-02-02T07:33:54.212Z,100723.28
2023-02-02T07:36:23.870Z,100726.94
2023-02-02T07:38:57.349Z,100727.63
2023-02-02T07:41:24.610Z,100735.25
2023-02-02T07:43:51.759Z,100727.50
2023-02-02T07:46:19.557Z,100732.34
2023-02-02T07:48:46.154Z,100736.94
2023-02-02T07:51:15.782Z,100745.41
2023-02-02T07:53:47.259Z,100746.19
2023-02-02T07:56:22.268Z,100747.19
2023-02-02T07:58:52.211Z,100749.81
2023-02-02T08:01:20.474Z,100757.09
2023-02-02T08:03:47.348Z,100762.31
2023-02-02T08:06:21.969Z,100764.34
2023-02-02T08:08:49.341Z,100774.56
2023-02-02T08:11:18.482Z,100772.88
2023-02-02T08:13:49.293Z,100774.81
2023-02-02T08:16:16.195Z,100778.66
2023-02-02T08:18:43.927Z,100778.09
2023-02-02T08:21:11.356Z,100782.25
2023-02-02T08:23:39.897Z,100790.94
2023-02-02T08:26:08.986Z,100793.78
2023-02-02T08:28:36.502Z,100807.06
2023-02-02T08:31:06.649Z,100806.81
2023-02-02T08:33:33.192Z,100801.78
2023-02-02T08:35:59.935Z,100807.75
2023-02-02T08:38:26.430Z,100800.78
2023-02-02T08:40:52.926Z,100804.91
2023-02-02T08:43:19.362Z,100813.84
2023-02-02T08:46:03.711Z,100808.75
2023-02-02T08:48:31.511Z,100815.72
2023-02-02T08:51:00.017Z,100807.78
2023-02-02T08:53:27.673Z,100807.94
2023-02-02T08:56:06.736Z,100814.75
2023-02-02T08:58:34.356Z,100807.56
2023-02-02T09:01:09.035Z,100806.75
2023-02-02T09:03:38.892Z,100815.97
2023-02-02T09:06:31.032Z,100809.19
2023-02-02T09:08:57.514Z,100808.88
2023-02-02T09:11:24.251Z,100814.25
2023-02-02T09:13:55.295Z,100819.53
2023-02-02T09:16:22.837Z,100831.00
2023-02-02T09:18:49.572Z,100826.75
2023-02-02T09:21:17.543Z,100821.78
2023-02-02T09:23:46.173Z,100840.22
2023-02-02T09:26:27.691Z,100848.44
2023-02-02T09:29:02.436Z,100843.97
2023-02-02T09:31:30.935Z,100853.69
2023-02-02T09:34:01.705Z,100848.84
2023-02-02T09:36:28.227Z,100862.44
2023-02-02T09:38:54.862Z,100863.28
2023-02-02T09:41:39.498Z,100872.84
2023-02-02T09:44:30.204Z,100873.75
2023-02-02T09:47:08.911Z,100876.38
2023-02-02T09:49:57.035Z,100885.47
2023-02-02T09:52:41.427Z,100872.81
2023-02-02T09:55:23.340Z,100884.44
2023-02-02T09:57:55.035Z,100884.00
2023-02-02T10:00:37.992Z,100885.25
2023-02-02T10:03:24.617Z,100878.47
2023-02-02T10:06:07.542Z,100877.59
2023-02-02T10:08:44.193Z,100895.84
2023-02-02T10:12:01.962Z,100890.75
2023-02-02T10:14:36.686Z,100892.22
2023-02-02T10:17:38.852Z,100898.28
2023-02-02T10:20:23.923Z,100897.13
2023-02-02T10:22:51.086Z,100904.50
2023-02-02T10:25:17.954Z,100899.41
2023-02-02T10:27:58.367Z,100912.50
2023-02-02T10:30:36.696Z,100898.59
2023-02-02T10:33:12.596Z,100918.06
2023-02-02T10:35:47.295Z,100912.03
2023-02-02T10:38:25.589Z,100922.63
2023-02-02T10:41:05.206Z,100915.72
2023-02-02T10:43:57.432Z,100923.06
2023-02-02T10:47:05.501Z,100925.94
2023-02-02T10:49:37.440Z,100936.72
2023-02-02T10:52:10.959Z,100927.31
2023-02-02T10:54:56.421Z,100939.41
2023-02-02T10:58:01.481Z,100936.00
2023-02-02T11:00:58.250Z,100947.50
2023-02-02T11:03:30.276Z,100937.59
2023-02-02T11:06:20.901Z,100949.09
2023-02-02T11:08:52.740Z,100945.59
2023-02-02T11:11:26.281Z,100956.00
2023-02-02T11:13:58.236Z,100963.81
2023-02-02T11:16:38.851Z,100967.09
2023-02-02T11:19:29.895Z,100964.56
2023-02-02T11:21:58.987Z,100967.81
2023-02-02T11:24:41.319Z,100968.56
2023-02-02T11:27:21.181Z,100961.47
2023-02-02T11:29:56.787Z,100976.13
2023-02-02T11:32:28.165Z,100981.28
2023-02-02T11:35:06.557Z,100975.16
2023-02-02T11:37:38.247Z,100986.84
2023-02-02T11:40:24.342Z,100989.78
2023-02-02T11:42:52.497Z,100986.84
2023-02-02T11:45:27.349Z,100999.44
2023-02-02T11:47:53.886Z,100996.69
2023-02-02T11:50:27.524Z,100999.72
2023-02-02T11:52:54.540Z,100992.28
2023-02-02T11:55:27.933Z,100993.84
2023-02-02T11:58:27.315Z,101009.28
2023-02-02T12:01:01.060Z,100993.38
2023-02-02T12:03:32.355Z,100998.03
2023-02-02T12:05:59.632Z,101003.72
2023-02-02T12:08:26.287Z,101008.22
2023-02-02T12:11:03.556Z,101002.06
2023-02-02T12:14:07.846Z,101010.53
2023-02-02T12:16:53.578Z,101011.75
2023-02-02T12:19:26.088Z,101022.56
2023-02-02T12:22:03.094Z,101051.78
2023-02-02T12:24:38.013Z,101069.38
2023-02-02T12:27:18.822Z,101071.19
2023-02-02T12:30:03.575Z,101070.88
2023-02-02T12:32:42.085Z,101081.50
2023-02-02T12:35:21.406Z,101077.28
2023-02-02T12:38:05.566Z,101067.09
2023-02-02T12:40:58.303Z,101073.09
2023-02-02T12:43:47.219Z,101056.00
2023-02-02T12:46:41.325Z,101077.34
2023-02-02T12:49:35.261Z,101077.09
2023-02-02T12:52:20.406Z,101076.28
2023-02-02T12:54:59.061Z,101073.78
2023-02-02T12:58:02.303Z,101074.41
2023-02-02T13:01:17.195Z,101073.25
2023-02-02T13:03:46.300Z,101064.50
2023-02-02T13:06:21.625Z,101072.75
2023-02-02T13:08:56.219Z,101079.06
2023-02-02T13:11:36.151Z,101081.78
2023-02-02T13:14:23.093Z,101088.72
2023-02-02T13:16:54.304Z,101095.97
2023-02-02T13:19:35.833Z,101095.09
2023-02-02T13:22:06.287Z,101094.72
2023-02-02T13:24:37.556Z,101108.81
2023-02-02T13:27:07.439Z,101110.41
2023-02-02T13:29:58.496Z,101120.25
2023-02-02T13:32:37.509Z,101128.16
2023-02-02T13:35:27.389Z,101127.78
2023-02-02T13:38:16.364Z,101137.03
2023-02-02T13:40:44.065Z,101136.72
2023-02-02T13:43:29.222Z,101145.00
2023-02-02T13:46:18.644Z,101145.06
2023-02-02T13:48:47.827Z,101154.28
2023-02-02T13:51:49.818Z,101161.16
2023-02-02T13:54:22.057Z,101158.63
2023-02-02T13:57:16.264Z,101160.78
2023-02-02T13:59:57.302Z,101165.06
2023-02-02T14:02:35.698Z,101172.69
2023-02-02T14:05:05.864Z,101179.31
2023-02-02T14:07:42.001Z,101194.03
2023-02-02T14:10:21.413Z,101200.06
2023-02-02T14:12:48.258Z,101205.00
2023-02-02T14:15:15.017Z,101205.66
2023-02-02T14:17:41.959Z,101211.34
2023-02-02T14:20:40.249Z,101211.25
2023-02-02T14:23:45.219Z,101225.25
2023-02-02T14:26:12.569Z,101225.81
2023-02-02T14:28:46.025Z,101222.31
2023-02-02T14:31:52.262Z,101235.00
2023-02-02T14:34:27.793Z,101242.63
2023-02-02T14:37:30.046Z,101255.81
2023-02-02T14:40:12.466Z,101254.81
2023-02-02T14:43:21.737Z,101265.56
2023-02-02T14:46:10.446Z,101270.53
2023-02-02T14:48:39.155Z,101275.97
2023-02-02T14:51:14.289Z,101284.88
2023-02-02T14:53:49.256Z,101284.34
2023-02-02T14:56:17.490Z,101293.41
2023-02-02T14:58:53.417Z,101302.88
2023-02-02T15:01:23.719Z,101300.56
2023-02-02T15:03:57.523Z,101313.88
2023-02-02T15:06:34.617Z,101307.38
2023-02-02T15:09:20.038Z,101319.16
2023-02-02T15:12:00.790Z,101327.34
2023-02-02T15:14:55.970Z,101319.34
2023-02-02T15:17:22.636Z,101330.25
2023-02-02T15:19:58.875Z,101335.44
2023-02-02T15:22:48.163Z,101340.28
2023-02-02T15:25:24.357Z,101346.44
2023-02-02T15:28:02.981Z,101345.50
2023-02-02T15:30:33.641Z,101351.28
2023-02-02T15:33:06.459Z,101370.44
2023-02-02T15:35:37.196Z,101361.66
2023-02-02T15:38:06.623Z,101378.38
2023-02-02T15:40:37.465Z,101377.94
2023-02-02T15:43:09.139Z,101386.97
2023-02-02T15:45:39.778Z,101397.03
2023-02-02T15:48:20.097Z,101401.19
2023-02-02T15:50:48.420Z,101407.78
2023-02-02T15:53:19.614Z,101418.19
2023-02-02T15:55:46.276Z,101411.84
2023-02-02T15:58:32.261Z,101420.91
2023-02-02T16:01:14.308Z,101425.50
2023-02-02T16:03:54.270Z,101440.50
2023-02-02T16:06:21.549Z,101443.47
2023-02-02T16:08:49.393Z,101450.38
2023-02-02T16:11:23.829Z,101457.75
2023-02-02T16:13:58.241Z,101457.97
2023-02-02T16:16:30.415Z,101469.56
2023-02-02T16:19:24.475Z,101477.63
2023-02-02T16:21:53.987Z,101477.00
2023-02-02T16:24:32.638Z,101484.00
2023-02-02T16:27:01.091Z,101484.00
2023-02-02T16:29:28.907Z,101496.84
2023-02-02T16:31:56.528Z,101501.38
2023-02-02T16:34:41.316Z,101507.25
2023-02-02T16:37:13.435Z,101513.56
2023-02-02T16:39:40.141Z,101521.53
2023-02-02T16:42:31.759Z,101526.34
2023-02-02T16:45:00.385Z,101530.47
2023-02-02T16:47:26.841Z,101547.38
2023-02-02T16:49:55.824Z,101542.94
2023-02-02T16:52:22.558Z,101537.06
2023-02-02T16:54:55.007Z,101548.53
2023-02-02T16:57:33.946Z,101547.03
2023-02-02T17:00:06.196Z,101549.75
2023-02-02T17:02:38.731Z,101558.72
2023-02-02T17:05:07.775Z,101560.31
2023-02-02T17:07:37.574Z,101571.00
2023-02-02T17:10:18.168Z,101579.00
2023-02-02T17:12:45.883Z,101579.13
2023-02-02T17:15:18.357Z,101578.13
2023-02-02T17:17:47.982Z,101580.88
2023-02-02T17:20:15.899Z,101583.69
2023-02-02T17:22:45.445Z,101586.84
2023-02-02T17:25:35.792Z,101581.84
2023-02-02T17:28:03.937Z,101591.41
2023-02-02T17:30:30.730Z,101592.41
2023-02-02T17:32:57.482Z,101588.19
2023-02-02T17:35:27.078Z,101592.06
2023-02-02T17:37:54.514Z,101595.00
2023-02-02T17:40:23.578Z,101600.25
2023-02-02T17:42:52.215Z,101604.34
2023-02-02T17:45:24.937Z,101609.97
2023-02-02T17:47:51.701Z,101614.91
2023-02-02T17:50:18.798Z,101614.25
2023-02-02T17:52:46.180Z,101627.44
2023-02-02T17:55:15.667Z,101634.16
2023-02-02T17:57:42.102Z,101627.56
2023-02-02T18:00:10.029Z,101623.03
2023-02-02T18:02:36.594Z,101635.06
2023-02-02T18:05:04.674Z,101627.16
2023-02-02T18:07:31.768Z,101625.56
2023-02-02T18:09:58.333Z,101628.22
2023-02-02T18:12:24.813Z,101633.84
2023-02-02T18:14:51.291Z,101634.22
2023-02-02T18:17:17.693Z,101635.78
2023-02-02T18:19:47.498Z,101637.88
2023-02-02T18:22:14.033Z,101642.84
2023-02-02T18:24:41.141Z,101643.72
2023-02-02T18:27:08.373Z,101643.06
2023-02-02T18:29:35.383Z,101641.22
2023-02-02T18:32:02.579Z,101645.91
2023-02-02T18:34:33.579Z,101637.91
2023-02-02T18:37:00.382Z,101652.88
2023-02-02T18:39:27.111Z,101640.63
2023-02-02T18:41:53.615Z,101631.13
2023-02-02T18:44:20.151Z,101627.84
2023-02-02T18:46:46.660Z,101644.56
2023-02-02T18:49:13.186Z,101634.81
2023-02-02T18:51:40.113Z,101641.13
2023-02-02T18:54:06.624Z,101632.38
2023-02-02T18:56:33.115Z,101637.53
2023-02-02T18:58:59.648Z,101635.75
2023-02-02T19:01:26.593Z,101622.56
2023-02-02T19:03:57.118Z,101628.09
2023-02-02T19:06:43.557Z,101621.13
2023-02-02T19:09:10.323Z,101628.28
2023-02-02T19:11:45.416Z,101630.06
2023-02-02T19:14:19.526Z,101636.69
2023-02-02T19:16:48.747Z,101632.03
2023-02-02T19:19:29.096Z,101629.47
2023-02-02T19:22:01.129Z,101641.38
2023-02-02T19:24:37.234Z,101636.34
2023-02-02T19:27:14.664Z,101642.34
2023-02-02T19:29:41.186Z,101643.13
2023-02-02T19:32:23.030Z,101650.56
2023-02-02T19:34:52.127Z,101651.19
2023-02-02T19:37:21.454Z,101650.38
2023-02-02T19:39:47.969Z,101656.50
2023-02-02T19:42:14.424Z,101654.94
2023-02-02T19:44:42.001Z,101655.56
2023-02-02T19:47:21.533Z,101661.25
2023-02-02T19:49:47.997Z,101649.41
2023-02-02T19:52:23.107Z,101654.72
2023-02-02T19:54:50.188Z,101659.00
2023-02-02T19:57:22.605Z,101659.00
2023-02-02T19:59:51.318Z,101669.53
2023-02-02T20:02:31.474Z,101675.28
2023-02-02T20:05:18.204Z,101667.94
2023-02-02T20:07:45.222Z,101666.47
2023-02-02T20:10:25.267Z,101670.09
2023-02-02T20:12:52.934Z,101665.63
2023-02-02T20:15:39.472Z,101667.34
2023-02-02T20:18:14.024Z,101671.66
2023-02-02T20:20:43.315Z,101675.97
2023-02-02T20:23:27.611Z,101669.00
2023-02-02T20:25:54.297Z,101662.06
2023-02-02T20:28:41.540Z,101671.59
2023-02-02T20:31:10.365Z,101669.78
2023-02-02T20:33:37.165Z,101662.63
2023-02-02T20:36:15.663Z,101661.19
2023-02-02T20:38:42.193Z,101659.59
2023-02-02T20:41:08.630Z,101653.06
2023-02-02T20:43:35.793Z,101656.44
2023-02-02T20:46:02.642Z,101651.41
2023-02-02T20:48:29.269Z,101654.28
2023-02-02T20:50:55.728Z,101655.75
2023-02-02T20:53:22.341Z,101648.09
2023-02-02T20:55:48.757Z,101651.69
2023-02-02T20:58:15.246Z,101652.00
2023-02-02T21:00:42.069Z,101645.47
2023-02-02T21:03:08.652Z,101641.38
2023-02-02T21:05:35.172Z,101641.91
2023-02-02T21:08:01.956Z,101636.09
2023-02-02T21:10:28.795Z,101646.75
2023-02-02T21:12:55.504Z,101646.97
2023-02-02T21:15:22.061Z,101640.84
2023-02-02T21:17:48.506Z,101641.03
2023-02-02T21:20:15.184Z,101635.41
2023-02-02T21:22:41.982Z,101625.38
2023-02-02T21:25:09.146Z,101632.22
2023-02-02T21:27:35.951Z,101626.28
2023-02-02T21:30:02.452Z,101622.00
2023-02-02T21:32:29.059Z,101624.69
2023-02-02T21:34:55.550Z,101620.44
2023-02-02T21:37:21.999Z,101625.66
2023-02-02T21:39:51.036Z,101608.16
2023-02-02T21:42:21.091Z,101615.88
2023-02-02T21:44:57.991Z,101614.41
2023-02-02T21:47:51.740Z,101612.75
2023-02-02T21:50:22.728Z,101624.94
2023-02-02T21:52:49.279Z,101610.75
2023-02-02T21:55:37.265Z,101618.75
2023-02-02T21:58:19.141Z,101621.50
2023-02-02T22:00:46.730Z,101621.56
2023-02-02T22:03:40.326Z,101605.28
2023-02-02T22:06:18.744Z,101607.69
2023-02-02T22:08:45.331Z,101595.63
2023-02-02T22:11:23.866Z,101602.41
2023-02-02T22:13:52.560Z,101595.63
2023-02-02T22:16:20.866Z,101589.66
2023-02-02T22:18:47.626Z,101596.78
2023-02-02T22:21:17.996Z,101597.72
2023-02-02T22:23:46.070Z,101592.34
2023-02-02T22:26:33.544Z,101598.41
2023-02-02T22:29:01.990Z,101599.41
2023-02-02T22:31:28.464Z,101590.75
2023-02-02T22:33:54.952Z,101592.47
2023-02-02T22:36:21.573Z,101597.72
2023-02-02T22:38:48.036Z,101605.69
2023-02-02T22:41:14.578Z,101600.13
2023-02-02T22:43:41.151Z,101595.59
2023-02-02T22:46:07.678Z,101598.13
2023-02-02T22:48:34.134Z,101598.97
2023-02-02T22:51:00.637Z,101593.16
2023-02-02T22:53:27.188Z,101597.38
2023-02-02T22:55:56.635Z,101591.00
2023-02-02T22:58:24.594Z,101597.00
2023-02-02T23:00:51.515Z,101600.44
2023-02-02T23:03:18.143Z,101590.22
2023-02-02T23:05:44.873Z,101592.34
2023-02-02T23:08:11.322Z,101586.75
2023-02-02T23:10:37.973Z,101590.38
2023-02-02T23:13:05.936Z,101594.31
2023-02-02T23:15:33.070Z,101583.41
2023-02-02T23:17:59.716Z,101588.69
2023-02-02T23:20:26.844Z,101592.47
2023-02-02T23:22:53.490Z,101587.72
2023-02-02T23:25:20.066Z,101582.22
2023-02-02T23:27:46.625Z,101582.16
2023-02-02T23:30:14.275Z,101569.19
2023-02-02T23:32:41.393Z,101569.50
2023-02-02T23:35:10.611Z,101566.06
2023-02-02T23:37:37.621Z,101569.72
2023-02-02T23:40:04.446Z,101552.16
2023-02-02T23:42:30.856Z,101555.59
2023-02-02T23:44:57.323Z,101547.53
2023-02-02T23:47:23.889Z,101540.19
2023-02-02T23:49:50.389Z,101531.63
2023-02-02T23:52:17.149Z,101538.59
2023-02-02T23:54:43.780Z,101523.50
2023-02-02T23:57:10.534Z,101527.03
2023-02-02T23:59:37.009Z,101526.38
